createdAt,value
2022-09-06T00:01:10.032Z,57.14
2022-09-06T00:05:21.954Z,57.72
2022-09-06T00:09:33.626Z,57.44
2022-09-06T00:13:46.581Z,57.74
2022-09-06T00:17:59.761Z,57.77
2022-09-06T00:22:11.521Z,57.85
2022-09-06T00:26:23.610Z,57.54
2022-09-06T00:30:35.325Z,57.57
2022-09-06T00:34:46.956Z,57.96
2022-09-06T00:39:23.384Z,58.12
2022-09-06T00:43:35.454Z,57.90
2022-09-06T00:47:47.394Z,58.92
2022-09-06T00:52:13.672Z,59.97
2022-09-06T00:56:26.391Z,60.28
2022-09-06T01:00:38.168Z,61.49
2022-09-06T01:04:51.981Z,62.37
2022-09-06T01:09:25.769Z,63.36
2022-09-06T01:13:55.712Z,63.45
2022-09-06T01:18:31.768Z,62.90
2022-09-06T01:23:04.585Z,62.37
2022-09-06T01:27:41.053Z,63.40
2022-09-06T01:31:58.689Z,63.82
2022-09-06T01:36:15.252Z,64.32
2022-09-06T01:40:28.100Z,64.80
2022-09-06T01:44:43.772Z,65.38
2022-09-06T01:49:22.747Z,65.83
2022-09-06T01:53:55.062Z,65.77
2022-09-06T01:58:09.532Z,66.52
2022-09-06T02:02:42.605Z,66.44
2022-09-06T02:07:00.862Z,66.72
2022-09-06T02:11:14.715Z,67.48
2022-09-06T02:15:36.875Z,68.43
2022-09-06T02:19:57.237Z,69.43
2022-09-06T02:24:12.060Z,69.12
2022-09-06T02:28:24.144Z,69.19
2022-09-06T02:32:44.392Z,69.62
2022-09-06T02:36:56.406Z,70.28
2022-09-06T02:41:09.225Z,69.94
2022-09-06T02:45:20.792Z,71.62
2022-09-06T02:49:32.362Z,71.41
2022-09-06T02:53:43.909Z,72.42
2022-09-06T02:57:55.442Z,71.52
2022-09-06T03:02:07.071Z,72.41
2022-09-06T03:06:18.706Z,72.39
2022-09-06T03:10:30.413Z,71.98
2022-09-06T03:14:42.109Z,72.26
2022-09-06T03:18:53.878Z,72.17
2022-09-06T03:23:05.613Z,72.61
2022-09-06T03:27:17.317Z,72.24
2022-09-06T03:31:28.962Z,72.24
2022-09-06T03:35:46.924Z,72.16
2022-09-06T03:39:59.879Z,72.83
2022-09-06T03:44:11.640Z,72.92
2022-09-06T03:48:24.808Z,72.58
2022-09-06T03:52:36.634Z,72.79
2022-09-06T03:56:48.221Z,73.17
2022-09-06T04:01:05.517Z,72.78
2022-09-06T04:05:17.950Z,72.89
2022-09-06T04:09:29.604Z,73.00
2022-09-06T04:13:41.610Z,74.14
2022-09-06T04:17:53.234Z,74.33
2022-09-06T04:22:04.864Z,73.64
2022-09-06T04:26:16.867Z,73.38
2022-09-06T04:30:28.548Z,73.33
2022-09-06T04:34:40.212Z,73.23
2022-09-06T04:38:51.816Z,73.77
2022-09-06T04:43:03.476Z,73.31
2022-09-06T04:47:16.236Z,73.45
2022-09-06T04:51:27.998Z,73.90
2022-09-06T04:55:39.635Z,73.88
2022-09-06T04:59:51.300Z,73.78
2022-09-06T05:04:02.948Z,73.76
2022-09-06T05:08:14.819Z,73.53
2022-09-06T05:12:26.575Z,73.56
2022-09-06T05:16:38.295Z,73.52
2022-09-06T05:20:53.748Z,73.81
2022-09-06T05:25:06.018Z,73.32
2022-09-06T05:29:17.581Z,73.74
2022-09-06T05:33:29.156Z,73.44
2022-09-06T05:37:40.945Z,73.61
2022-09-06T05:41:52.521Z,73.48
2022-09-06T05:46:04.264Z,73.55
2022-09-06T05:50:15.986Z,73.90
2022-09-06T05:54:27.542Z,73.57
2022-09-06T05:58:39.605Z,73.84
2022-09-06T06:02:51.312Z,73.34
2022-09-06T06:07:02.911Z,72.37
2022-09-06T06:11:14.950Z,70.38
2022-09-06T06:15:26.540Z,68.99
2022-09-06T06:19:38.102Z,67.66
2022-09-06T06:23:51.865Z,65.57
2022-09-06T06:28:04.054Z,63.00
2022-09-06T06:32:15.641Z,60.52
2022-09-06T06:36:30.665Z,57.53
2022-09-06T06:40:45.702Z,54.47
2022-09-06T06:44:57.264Z,51.65
2022-09-06T06:49:08.823Z,50.31
2022-09-06T06:53:20.357Z,48.38
2022-09-06T06:57:31.943Z,45.68
2022-09-06T07:01:43.605Z,43.93
2022-09-06T07:06:12.033Z,42.36
2022-09-06T07:14:43.699Z,40.98
2022-09-06T07:18:55.378Z,40.20
2022-09-06T07:32:15.463Z,36.74
2022-09-06T07:36:27.003Z,36.87
2022-09-06T07:40:38.513Z,36.04
2022-09-06T07:44:50.054Z,35.47
2022-09-06T07:49:04.592Z,35.43
2022-09-06T07:53:29.261Z,34.70
2022-09-06T07:57:41.956Z,34.19
2022-09-06T08:01:53.759Z,34.38
2022-09-06T08:06:08.708Z,34.12
2022-09-06T08:10:20.720Z,33.48
2022-09-06T08:14:35.817Z,33.11
2022-09-06T08:18:52.495Z,32.47
2022-09-06T08:23:09.844Z,31.86
2022-09-06T08:27:21.395Z,31.80
2022-09-06T08:31:33.808Z,30.89
2022-09-06T08:35:54.583Z,29.61
2022-09-06T08:40:06.678Z,29.10
2022-09-06T08:49:01.253Z,28.35
2022-09-06T08:53:18.967Z,28.23
2022-09-06T08:57:40.084Z,27.80
2022-09-06T09:02:21.727Z,27.42
2022-09-06T09:06:34.000Z,27.11
2022-09-06T09:10:52.211Z,27.08
2022-09-06T09:15:10.497Z,26.09
2022-09-06T09:19:22.121Z,26.91
2022-09-06T09:23:33.622Z,26.34
2022-09-06T09:27:45.517Z,26.24
2022-09-06T09:31:57.475Z,26.33
2022-09-06T09:36:13.161Z,26.04
2022-09-06T09:40:24.658Z,25.94
2022-09-06T09:44:43.266Z,25.94
2022-09-06T09:49:08.337Z,26.02
2022-09-06T09:53:22.227Z,25.72
2022-09-06T09:57:48.522Z,24.51
2022-09-06T10:02:02.162Z,24.75
2022-09-06T10:10:47.915Z,24.02
2022-09-06T10:15:02.419Z,23.93
2022-09-06T10:19:30.111Z,23.94
2022-09-06T10:28:36.961Z,23.71
2022-09-06T10:33:23.610Z,23.34
2022-09-06T10:38:03.351Z,23.56
2022-09-06T10:42:54.435Z,23.16
2022-09-06T10:47:11.379Z,22.86
2022-09-06T10:51:34.850Z,22.84
2022-09-06T10:56:01.247Z,22.98
2022-09-06T11:00:14.538Z,23.09
2022-09-06T11:09:11.107Z,22.71
2022-09-06T11:13:27.061Z,23.15
2022-09-06T11:18:08.057Z,23.86
2022-09-06T11:22:48.049Z,23.96
2022-09-06T11:27:16.181Z,23.67
2022-09-06T11:36:18.578Z,23.45
2022-09-06T11:40:37.692Z,24.04
2022-09-06T11:44:58.133Z,23.60
2022-09-06T11:49:29.321Z,24.03
2022-09-06T11:53:49.798Z,23.79
2022-09-06T11:58:04.702Z,24.49
2022-09-06T12:02:42.284Z,24.59
2022-09-06T12:07:12.053Z,25.10
2022-09-06T12:11:43.469Z,24.65
2022-09-06T12:15:56.482Z,24.87
2022-09-06T12:20:08.313Z,25.79
2022-09-06T12:24:35.265Z,26.67
2022-09-06T12:28:49.901Z,26.83
2022-09-06T12:33:07.608Z,26.20
2022-09-06T12:37:32.170Z,26.80
2022-09-06T12:41:49.789Z,27.54
2022-09-06T12:46:05.124Z,28.53
2022-09-06T12:50:24.884Z,29.39
2022-09-06T12:54:43.758Z,30.12
2022-09-06T12:59:20.070Z,30.62
2022-09-06T13:03:37.261Z,30.75
2022-09-06T13:07:53.260Z,31.26
2022-09-06T13:12:08.494Z,31.80
2022-09-06T13:16:26.603Z,31.72
2022-09-06T13:20:38.196Z,31.11
2022-09-06T13:25:23.934Z,32.26
2022-09-06T13:29:36.629Z,32.58
2022-09-06T13:33:58.690Z,32.72
2022-09-06T13:38:38.071Z,32.19
2022-09-06T13:43:00.359Z,31.75
2022-09-06T13:47:11.871Z,31.08
2022-09-06T13:51:24.228Z,29.78
2022-09-06T13:55:35.800Z,30.29
2022-09-06T13:59:47.341Z,29.97
2022-09-06T14:03:59.969Z,30.28
2022-09-06T14:08:11.520Z,30.31
2022-09-06T14:12:23.171Z,30.69
2022-09-06T14:16:34.819Z,31.17
2022-09-06T14:20:52.950Z,31.90
2022-09-06T14:25:06.936Z,31.72
2022-09-06T14:29:19.016Z,31.69
2022-09-06T14:33:31.101Z,31.58
2022-09-06T14:37:43.969Z,31.79
2022-09-06T14:41:55.580Z,31.87
2022-09-06T14:46:15.081Z,32.07
2022-09-06T14:50:26.887Z,32.00
2022-09-06T14:54:38.491Z,32.13
2022-09-06T14:58:50.343Z,32.24
2022-09-06T15:03:01.940Z,32.41
2022-09-06T15:07:13.605Z,32.24
2022-09-06T15:11:30.228Z,32.67
2022-09-06T15:15:41.885Z,32.94
2022-09-06T15:19:54.305Z,33.35
2022-09-06T15:24:11.146Z,33.32
2022-09-06T15:28:23.439Z,34.22
2022-09-06T15:32:35.007Z,34.42
2022-09-06T15:36:47.060Z,34.47
2022-09-06T15:41:08.244Z,34.25
2022-09-06T15:45:19.976Z,34.32
2022-09-06T15:49:32.575Z,34.60
2022-09-06T15:53:44.672Z,34.57
2022-09-06T15:57:56.234Z,34.26
2022-09-06T16:02:08.852Z,34.94
2022-09-06T16:10:38.792Z,34.92
2022-09-06T16:14:50.323Z,34.92
2022-09-06T16:19:02.418Z,35.81
2022-09-06T16:23:14.027Z,36.06
2022-09-06T16:27:25.614Z,36.19
2022-09-06T16:31:40.292Z,36.14
2022-09-06T16:35:52.471Z,36.48
2022-09-06T16:40:04.655Z,38.28
2022-09-06T16:44:18.258Z,37.67
2022-09-06T16:48:30.811Z,37.65
2022-09-06T16:52:42.485Z,37.90
2022-09-06T16:56:54.144Z,37.50
2022-09-06T17:01:06.558Z,37.99
2022-09-06T17:05:18.373Z,38.18
2022-09-06T17:09:30.030Z,38.39
2022-09-06T17:13:42.682Z,38.58
2022-09-06T17:17:54.367Z,38.78
2022-09-06T17:22:06.158Z,38.74
2022-09-06T17:26:22.203Z,39.05
2022-09-06T17:30:39.653Z,39.42
2022-09-06T17:34:51.306Z,39.46
2022-09-06T17:39:07.620Z,39.70
2022-09-06T17:43:19.245Z,39.81
2022-09-06T17:47:31.854Z,39.85
2022-09-06T17:51:43.833Z,40.00
2022-09-06T17:55:55.517Z,40.30
2022-09-06T18:00:07.637Z,40.42
2022-09-06T18:04:19.547Z,40.85
2022-09-06T18:08:31.216Z,41.16
2022-09-06T18:12:43.076Z,41.42
2022-09-06T18:16:54.757Z,41.55
2022-09-06T18:21:06.985Z,41.31
2022-09-06T18:25:18.593Z,41.06
2022-09-06T18:29:30.216Z,41.29
2022-09-06T18:33:42.585Z,41.24
2022-09-06T18:37:54.155Z,41.50
2022-09-06T18:42:11.006Z,41.53
2022-09-06T18:46:22.587Z,41.49
2022-09-06T18:50:38.085Z,41.75
2022-09-06T18:54:49.705Z,41.58
2022-09-06T18:59:02.051Z,42.10
2022-09-06T19:03:14.062Z,42.26
2022-09-06T19:07:28.548Z,42.83
2022-09-06T19:11:43.299Z,43.44
2022-09-06T19:15:54.879Z,43.77
2022-09-06T19:20:08.949Z,43.81
2022-09-06T19:24:22.756Z,44.21
2022-09-06T19:28:35.303Z,44.58
2022-09-06T19:32:47.501Z,45.04
2022-09-06T19:36:59.174Z,44.94
2022-09-06T19:41:13.070Z,45.47
2022-09-06T19:45:24.666Z,46.38
2022-09-06T19:49:36.341Z,46.46
2022-09-06T19:53:52.904Z,46.49
2022-09-06T19:58:07.952Z,46.75
2022-09-06T20:02:19.919Z,46.92
2022-09-06T20:06:31.778Z,47.35
2022-09-06T20:10:52.674Z,47.52
2022-09-06T20:15:04.531Z,47.78
2022-09-06T20:19:16.378Z,48.25
2022-09-06T20:23:29.161Z,48.01
2022-09-06T20:27:44.415Z,48.23
2022-09-06T20:31:56.331Z,48.15
2022-09-06T20:36:09.437Z,48.26
2022-09-06T20:40:21.056Z,48.43
2022-09-06T20:44:32.724Z,48.97
2022-09-06T20:48:45.954Z,49.05
2022-09-06T20:52:57.536Z,49.56
2022-09-06T20:57:09.186Z,50.19
2022-09-06T21:01:23.357Z,50.72
2022-09-06T21:05:35.066Z,51.21
2022-09-06T21:09:46.674Z,51.88
2022-09-06T21:13:58.414Z,52.38
2022-09-06T21:18:10.166Z,53.40
2022-09-06T21:22:21.756Z,53.97
2022-09-06T21:26:33.676Z,54.05
2022-09-06T21:30:45.430Z,54.19
2022-09-06T21:34:57.011Z,54.52
2022-09-06T21:39:10.728Z,54.69
2022-09-06T21:43:22.354Z,54.62
2022-09-06T21:47:33.983Z,54.40
2022-09-06T21:51:45.641Z,54.22
2022-09-06T21:56:01.123Z,53.86
2022-09-06T22:00:14.480Z,53.32
2022-09-06T22:04:26.234Z,53.33
2022-09-06T22:08:38.255Z,53.16
2022-09-06T22:12:50.934Z,53.06
2022-09-06T22:17:02.610Z,52.84
2022-09-06T22:21:18.729Z,52.90
2022-09-06T22:25:31.209Z,52.84
2022-09-06T22:29:42.857Z,52.52
2022-09-06T22:33:55.012Z,52.67
2022-09-06T22:38:07.651Z,52.63
2022-09-06T22:42:19.246Z,52.72
2022-09-06T22:46:31.415Z,52.47
2022-09-06T22:50:43.617Z,58.00
2022-09-06T22:54:55.883Z,59.25
2022-09-06T22:59:07.848Z,62.19
2022-09-06T23:03:19.649Z,65.37
2022-09-06T23:07:31.299Z,66.60
2022-09-06T23:11:43.019Z,68.70
2022-09-06T23:15:54.752Z,70.61
2022-09-06T23:20:06.999Z,71.23
2022-09-06T23:24:18.602Z,72.34
2022-09-06T23:28:30.599Z,72.99
2022-09-06T23:32:42.284Z,74.16
2022-09-06T23:36:54.158Z,74.91
2022-09-06T23:41:06.795Z,75.27
2022-09-06T23:45:18.362Z,75.36
2022-09-06T23:49:30.060Z,76.19
2022-09-06T23:53:41.679Z,75.59
2022-09-06T23:57:53.425Z,75.63
